Ana Sayfa
METAR-TAF:

METAR-TAF

Havaalanları :

Tulça, Romanya

Enlem: 45-11N, Boylam: 028-49E, yükseklik: 4 m

Güncel hava durumu gözlemi

Rapor saat 13:30 UTC de 34 dakika önce yapıldı.
Rüzgar kuzeydan 5 kt
Sıcaklık 8°C
Nem 61%
Basınç 1017 hPa
Görüş mesafesi 10 km veya daha fazla

METAR: LRTC 081330Z AUTO 01005KT 9999 NCD 08/01 Q1017

Saat: 16:04 (14:04 UTC)

Tahmin

Rapor saat 05:00 UTC de 9 saat ve 4 dakika önce yapıldı.
Ayın 08'si saat 06 UTC'den ayın 08'si saat 15 UTC'ye kadar geçerli Tahmin
Rüzgar değişken yönden 4 kt
Görüş mesafesi 10 km veya daha fazla
1500 m altında bulut yok ve kümülonimbus yok
Geçici
ayın 08'si saat 06 UTC'den ayın 08'si saat 08 UTC'ye kadar
Görüş mesafesi: 3000 m
Pus

TAF: LRTC 080500Z 0806/0815 VRB04KT CAVOK TEMPO 0806/0808 3000 BR

4.000'den fazla havaalanı için hava durumu gözlemleri ve tahminleri (METAR ve TAF raporları).

Kullanılabilir istasyonlar harita üzerinde sarı ve kırmızı noktalarla gösterilir.

İstasyonun adını görmek için fareyi noktanın üzerinde gezdirin.

Sonrasında hava gözlem ve tahminlerini görmek için tıklayın.

Haritayı değiştirmek için: yaklaştırmak için siyah artı işaretli yeşil düğmeye ve uzaklaştırmak için de eksi işaretli düğmeye hızla tıklayın; bitişik haritalar için yeşil okları kullanın.


METAR-TAF: